createdAt,value
2023-05-09T00:02:37.142Z,104
2023-05-09T00:06:39.279Z,104
2023-05-09T00:07:23.090Z,104
2023-05-09T00:13:26.909Z,104
2023-05-09T00:17:30.187Z,104
2023-05-09T00:19:31.686Z,80
2023-05-09T00:21:33.263Z,80
2023-05-09T00:23:34.210Z,80
2023-05-09T00:27:36.811Z,20
2023-05-09T00:29:37.824Z,19
2023-05-09T00:35:42.253Z,360
2023-05-09T00:39:45.099Z,4
2023-05-09T00:45:49.128Z,10
2023-05-09T00:49:51.753Z,129
2023-05-09T00:51:52.955Z,129
2023-05-09T00:55:55.872Z,119
2023-05-09T00:59:59.090Z,98
2023-05-09T01:02:00.506Z,98
2023-05-09T01:06:02.903Z,126
2023-05-09T01:12:07.625Z,124
2023-05-09T01:16:10.531Z,124
2023-05-09T01:18:11.639Z,124
2023-05-09T01:22:13.986Z,124
2023-05-09T01:28:18.575Z,110
2023-05-09T01:32:21.526Z,91
2023-05-09T01:34:22.812Z,92
2023-05-09T01:38:25.650Z,82
2023-05-09T01:42:29.004Z,82
2023-05-09T01:44:30.610Z,82
2023-05-09T01:48:33.561Z,82
2023-05-09T01:52:35.685Z,21
2023-05-09T01:54:37.443Z,21
2023-05-09T01:58:40.422Z,21
2023-05-09T02:00:42.206Z,21
2023-05-09T02:02:43.160Z,21
2023-05-09T02:04:44.991Z,21
2023-05-09T02:10:49.017Z,21
2023-05-09T02:16:53.714Z,21
2023-05-09T02:20:56.556Z,21
2023-05-09T02:27:00.354Z,21
2023-05-09T02:31:02.802Z,21
2023-05-09T02:37:06.878Z,21
2023-05-09T02:41:10.297Z,22
2023-05-09T02:43:11.409Z,22
2023-05-09T02:47:14.454Z,22
2023-05-09T02:53:19.067Z,23
2023-05-09T02:59:22.410Z,60
2023-05-09T03:01:23.528Z,60
2023-05-09T03:03:25.344Z,60
2023-05-09T03:09:29.019Z,77
2023-05-09T03:13:31.516Z,77
2023-05-09T03:15:33.192Z,99
2023-05-09T03:19:36.389Z,102
2023-05-09T03:23:39.521Z,111
2023-05-09T03:25:41.416Z,67
2023-05-09T03:29:43.969Z,112
2023-05-09T03:35:48.199Z,107
2023-05-09T03:41:52.388Z,190
2023-05-09T03:45:54.973Z,108
2023-05-09T03:51:58.963Z,108
2023-05-09T03:56:01.546Z,108
2023-05-09T03:58:03.255Z,119
2023-05-09T04:02:06.719Z,98
2023-05-09T04:06:09.811Z,136
2023-05-09T04:08:11.610Z,79
2023-05-09T04:12:14.842Z,135
2023-05-09T04:18:20.200Z,117
2023-05-09T04:22:23.128Z,134
2023-05-09T04:24:24.579Z,139
2023-05-09T04:28:27.772Z,166
2023-05-09T04:34:32.007Z,117
2023-05-09T04:40:36.591Z,127
2023-05-09T04:44:38.860Z,116
2023-05-09T04:50:42.898Z,132
2023-05-09T04:54:45.818Z,75
2023-05-09T05:00:50.134Z,134
2023-05-09T05:04:58.054Z,187
2023-05-09T05:06:54.158Z,126
2023-05-09T05:10:57.298Z,120
2023-05-09T05:17:01.134Z,190
2023-05-09T05:23:05.784Z,187
2023-05-09T05:27:08.684Z,178
2023-05-09T05:33:12.722Z,182
2023-05-09T05:37:15.647Z,181
2023-05-09T05:39:16.932Z,182
2023-05-09T05:43:19.813Z,181
2023-05-09T05:47:22.661Z,181
2023-05-09T05:49:24.520Z,181
2023-05-09T05:53:27.039Z,182
2023-05-09T05:59:30.965Z,181
2023-05-09T06:03:33.636Z,182
2023-05-09T06:05:35.328Z,182
2023-05-09T06:09:37.776Z,182
2023-05-09T06:15:41.695Z,84
2023-05-09T06:19:43.583Z,94
2023-05-09T06:21:45.350Z,95
2023-05-09T06:25:48.309Z,95
2023-05-09T06:29:51.163Z,155
2023-05-09T06:31:52.447Z,155
2023-05-09T06:35:55.033Z,97
2023-05-09T06:39:57.298Z,13
2023-05-09T06:41:58.373Z,155
2023-05-09T06:46:01.141Z,176
2023-05-09T06:48:02.756Z,172
2023-05-09T06:50:04.143Z,199
2023-05-09T06:52:05.087Z,199
2023-05-09T06:52:48.807Z,199
2023-05-09T06:56:50.900Z,199
2023-05-09T06:58:52.492Z,89
2023-05-09T07:02:54.430Z,170
2023-05-09T07:08:58.755Z,173
2023-05-09T07:13:01.871Z,192
2023-05-09T07:15:02.980Z,184
2023-05-09T07:19:05.941Z,123
2023-05-09T07:23:08.220Z,177
2023-05-09T07:25:09.827Z,199
2023-05-09T07:29:12.691Z,147
2023-05-09T07:35:16.206Z,104
2023-05-09T07:39:18.934Z,188
2023-05-09T07:41:19.882Z,158
2023-05-09T07:45:23.822Z,360
2023-05-09T07:51:27.575Z,140
2023-05-09T07:55:30.156Z,151
2023-05-09T07:57:31.195Z,102
2023-05-09T08:01:33.182Z,193
2023-05-09T08:05:35.694Z,189
2023-05-09T08:07:36.684Z,153
2023-05-09T08:11:39.627Z,152
2023-05-09T08:15:41.640Z,124
2023-05-09T08:17:43.402Z,186
2023-05-09T08:21:45.015Z,173
2023-05-09T08:23:46.673Z,140
2023-05-09T08:25:47.867Z,120
2023-05-09T08:27:49.791Z,128
2023-05-09T08:33:52.738Z,143
2023-05-09T08:39:56.964Z,173
2023-05-09T08:43:59.661Z,131
2023-05-09T08:50:02.676Z,99
2023-05-09T08:54:04.609Z,111
2023-05-09T08:56:05.928Z,151
2023-05-09T09:00:08.513Z,69
2023-05-09T09:06:12.720Z,127
2023-05-09T09:10:15.626Z,156
2023-05-09T09:16:19.188Z,160
2023-05-09T09:22:22.039Z,187
2023-05-09T09:26:25.873Z,155
2023-05-09T09:28:26.724Z,152
2023-05-09T09:32:28.697Z,154
2023-05-09T09:36:30.503Z,121
2023-05-09T09:38:32.120Z,187
2023-05-09T09:42:35.335Z,148
2023-05-09T09:48:39.097Z,158
2023-05-09T09:52:41.745Z,125
2023-05-09T09:54:42.690Z,100
2023-05-09T09:58:45.079Z,150
2023-05-09T10:04:48.663Z,126
2023-05-09T10:10:51.781Z,144
2023-05-09T10:14:54.381Z,154
2023-05-09T10:20:58.406Z,161
2023-05-09T10:25:01.049Z,169
2023-05-09T10:27:02.268Z,135
2023-05-09T10:31:06.473Z,196
2023-05-09T10:35:08.547Z,128
2023-05-09T10:37:10.223Z,119
2023-05-09T10:41:12.607Z,162
2023-05-09T10:47:15.643Z,132
2023-05-09T10:51:17.733Z,144
2023-05-09T10:53:18.600Z,175
2023-05-09T10:57:20.654Z,139
2023-05-09T11:03:25.316Z,151
2023-05-09T11:07:27.623Z,169
2023-05-09T11:09:28.843Z,183
2023-05-09T11:13:31.159Z,173
2023-05-09T11:17:33.014Z,184
2023-05-09T11:19:34.500Z,207
2023-05-09T11:23:37.243Z,185
2023-05-09T11:29:41.561Z,115
2023-05-09T11:33:44.728Z,145
2023-05-09T11:35:46.334Z,123
2023-05-09T11:39:47.998Z,256
2023-05-09T11:45:51.060Z,180
2023-05-09T11:51:54.627Z,88
2023-05-09T11:55:57.095Z,123
2023-05-09T12:02:01.331Z,197
2023-05-09T12:04:02.202Z,169
2023-05-09T12:06:03.913Z,163
2023-05-09T12:08:05.360Z,189
2023-05-09T12:12:07.771Z,176
2023-05-09T12:16:10.543Z,118
2023-05-09T12:18:11.634Z,139
2023-05-09T12:22:14.249Z,124
2023-05-09T12:28:18.571Z,99
2023-05-09T12:34:23.021Z,129
2023-05-09T12:38:25.740Z,203
2023-05-09T12:44:28.941Z,253
2023-05-09T12:48:31.781Z,178
2023-05-09T12:50:32.882Z,160
2023-05-09T12:54:34.759Z,152
2023-05-09T12:58:37.568Z,189
2023-05-09T13:00:38.866Z,249
2023-05-09T13:04:42.638Z,100
2023-05-09T13:10:47.223Z,183
2023-05-09T13:14:49.968Z,193
2023-05-09T13:16:51.454Z,176
2023-05-09T13:20:54.171Z,127
2023-05-09T13:26:57.400Z,135
2023-05-09T13:33:09.498Z,164
2023-05-09T13:37:04.483Z,185
2023-05-09T13:37:48.103Z,190
2023-05-09T13:41:50.867Z,135
2023-05-09T13:45:53.121Z,99
2023-05-09T13:47:54.863Z,142
2023-05-09T13:51:57.917Z,132
2023-05-09T13:53:58.773Z,205
2023-05-09T13:58:01.479Z,146
2023-05-09T14:04:05.217Z,182
2023-05-09T14:10:11.710Z,150
2023-05-09T14:14:12.123Z,178
2023-05-09T14:20:16.386Z,121
2023-05-09T14:24:19.375Z,179
2023-05-09T14:26:21.080Z,177
2023-05-09T14:30:23.870Z,187
2023-05-09T14:34:26.362Z,111
2023-05-09T14:36:27.318Z,94
2023-05-09T14:40:30.028Z,166
2023-05-09T14:46:34.538Z,135
2023-05-09T14:50:36.469Z,180
2023-05-09T14:52:38.180Z,145
2023-05-09T14:56:41.062Z,151
2023-05-09T15:02:45.674Z,104
2023-05-09T15:06:48.117Z,102
2023-05-09T15:08:48.992Z,100
2023-05-09T15:12:51.699Z,170
2023-05-09T15:16:54.286Z,97
2023-05-09T15:18:55.929Z,111
2023-05-09T15:22:58.916Z,84
2023-05-09T15:29:03.758Z,92
2023-05-09T15:33:06.740Z,99
2023-05-09T15:35:07.840Z,97
2023-05-09T15:39:09.859Z,116
2023-05-09T15:45:13.344Z,79
2023-05-09T15:51:16.554Z,42
2023-05-09T15:55:18.636Z,117
2023-05-09T16:01:22.699Z,113
2023-05-09T16:05:25.556Z,140
2023-05-09T16:09:28.057Z,87
2023-05-09T16:11:29.473Z,136
2023-05-09T16:15:31.641Z,100
2023-05-09T16:17:33.038Z,166
2023-05-09T16:21:36.155Z,49
2023-05-09T16:27:40.906Z,107
2023-05-09T16:33:45.441Z,127
2023-05-09T16:37:48.889Z,86
2023-05-09T16:43:53.592Z,87
2023-05-09T16:47:55.629Z,73
2023-05-09T16:49:57.025Z,102
2023-05-09T16:53:59.649Z,93
2023-05-09T16:58:02.442Z,52
2023-05-09T17:00:03.466Z,89
2023-05-09T17:04:06.734Z,98
2023-05-09T17:10:10.547Z,102
2023-05-09T17:16:13.575Z,140
2023-05-09T17:20:15.430Z,100
2023-05-09T17:26:19.234Z,115
2023-05-09T17:30:23.077Z,87
2023-05-09T17:32:22.983Z,97
2023-05-09T17:36:25.783Z,97
2023-05-09T17:40:28.360Z,97
2023-05-09T17:42:29.721Z,197
2023-05-09T17:46:32.477Z,172
2023-05-09T17:52:35.746Z,150
2023-05-09T17:56:37.778Z,151
2023-05-09T17:58:39.025Z,183
2023-05-09T18:00:40.509Z,195
2023-05-09T18:02:42.272Z,239
2023-05-09T18:08:46.532Z,207
2023-05-09T18:14:50.995Z,231
2023-05-09T18:18:53.729Z,179
2023-05-09T18:24:58.473Z,187
2023-05-09T18:29:01.295Z,187
2023-05-09T18:33:04.003Z,173
2023-05-09T18:35:05.776Z,136
2023-05-09T18:39:07.812Z,177
2023-05-09T18:41:09.150Z,177
2023-05-09T18:45:11.080Z,177
2023-05-09T18:51:14.777Z,179
2023-05-09T18:57:19.342Z,251
2023-05-09T19:01:31.529Z,257
2023-05-09T19:07:26.449Z,118
2023-05-09T19:11:29.314Z,117
2023-05-09T19:13:30.597Z,120
2023-05-09T19:17:33.605Z,241
2023-05-09T19:21:36.684Z,258
2023-05-09T19:23:47.510Z,259
2023-05-09T19:27:41.567Z,256
2023-05-09T19:33:45.517Z,254
2023-05-09T19:37:48.118Z,254
2023-05-09T19:39:49.160Z,254
2023-05-09T19:43:52.636Z,254
2023-05-09T19:49:57.053Z,214
2023-05-09T19:53:59.560Z,269
2023-05-09T19:56:00.965Z,269
2023-05-09T20:00:04.623Z,360
2023-05-09T20:04:07.549Z,208
2023-05-09T20:06:09.137Z,217
2023-05-09T20:10:11.717Z,173
2023-05-09T20:16:15.638Z,184
2023-05-09T20:20:18.245Z,192
2023-05-09T20:22:19.904Z,230
2023-05-09T20:23:03.677Z,180
2023-05-09T20:27:06.732Z,217
2023-05-09T20:33:10.152Z,184
2023-05-09T20:37:13.082Z,184
2023-05-09T20:43:16.856Z,184
2023-05-09T20:47:19.321Z,184
2023-05-09T20:49:20.455Z,184
2023-05-09T20:53:23.481Z,184
2023-05-09T20:57:25.675Z,184
2023-05-09T20:59:26.642Z,184
2023-05-09T21:03:28.945Z,184
2023-05-09T21:09:32.208Z,184
2023-05-09T21:15:37.051Z,184
2023-05-09T21:19:47.614Z,184
2023-05-09T21:25:43.005Z,184
2023-05-09T21:29:45.190Z,184
2023-05-09T21:31:46.881Z,184
2023-05-09T21:35:49.386Z,184
2023-05-09T21:39:51.548Z,184
2023-05-09T21:41:52.632Z,184
2023-05-09T21:45:55.509Z,184
2023-05-09T21:52:01.389Z,185
2023-05-09T21:56:01.907Z,185
2023-05-09T21:58:04.716Z,185
2023-05-09T22:02:06.280Z,185
2023-05-09T22:08:10.581Z,208
2023-05-09T22:14:14.419Z,209
2023-05-09T22:18:18.868Z,209
2023-05-09T22:22:21.213Z,220
2023-05-09T22:24:29.107Z,220
2023-05-09T22:28:22.841Z,220
2023-05-09T22:30:23.757Z,218
2023-05-09T22:34:27.057Z,221
2023-05-09T22:38:30.514Z,218
2023-05-09T22:40:32.879Z,218
2023-05-09T22:44:33.308Z,218
2023-05-09T22:50:38.199Z,218
2023-05-09T22:56:42.058Z,218
2023-05-09T23:00:44.647Z,218
2023-05-09T23:06:49.411Z,218
2023-05-09T23:10:51.924Z,218
2023-05-09T23:12:53.232Z,218
2023-05-09T23:16:55.988Z,218
2023-05-09T23:20:58.812Z,218
2023-05-09T23:23:00.492Z,218
2023-05-09T23:27:03.160Z,218
2023-05-09T23:33:06.297Z,218
2023-05-09T23:37:09.084Z,218
2023-05-09T23:39:10.012Z,218
2023-05-09T23:43:12.789Z,218
2023-05-09T23:49:16.247Z,218
2023-05-09T23:55:20.238Z,223
2023-05-09T23:59:22.948Z,223
